createdAt,value
2023-03-30T00:02:23.200Z,54.69
2023-03-30T00:04:52.131Z,54.88
2023-03-30T00:07:22.021Z,54.48
2023-03-30T00:09:50.391Z,55.15
2023-03-30T00:12:20.778Z,54.99
2023-03-30T00:14:49.324Z,55.07
2023-03-30T00:17:17.942Z,55.17
2023-03-30T00:19:46.305Z,55.77
2023-03-30T00:22:14.659Z,55.51
2023-03-30T00:24:44.722Z,54.97
2023-03-30T00:27:12.989Z,55.40
2023-03-30T00:29:41.369Z,55.58
2023-03-30T00:32:09.818Z,55.48
2023-03-30T00:34:38.151Z,55.64
2023-03-30T00:37:06.490Z,55.53
2023-03-30T00:39:35.148Z,55.45
2023-03-30T00:42:05.009Z,55.58
2023-03-30T00:45:07.908Z,55.24
2023-03-30T00:47:39.746Z,55.64
2023-03-30T00:50:10.109Z,54.98
2023-03-30T00:52:39.789Z,55.79
2023-03-30T00:55:11.037Z,55.02
2023-03-30T00:57:44.443Z,54.85
2023-03-30T01:00:14.793Z,54.98
2023-03-30T01:02:48.841Z,54.62
2023-03-30T01:05:18.104Z,54.39
2023-03-30T01:07:50.055Z,54.05
2023-03-30T01:10:18.939Z,54.21
2023-03-30T01:12:49.640Z,54.23
2023-03-30T01:15:18.304Z,53.85
2023-03-30T01:18:03.224Z,53.33
2023-03-30T01:21:01.007Z,53.11
2023-03-30T01:24:06.327Z,52.85
2023-03-30T01:26:46.528Z,52.88
2023-03-30T01:29:27.878Z,52.17
2023-03-30T01:32:33.889Z,52.22
2023-03-30T01:35:40.164Z,52.13
2023-03-30T01:39:02.195Z,51.87
2023-03-30T01:41:38.384Z,51.95
2023-03-30T01:44:13.565Z,51.75
2023-03-30T01:46:48.003Z,52.04
2023-03-30T01:49:24.098Z,51.63
2023-03-30T01:51:57.604Z,51.28
2023-03-30T01:54:31.752Z,51.96
2023-03-30T01:57:06.438Z,51.98
2023-03-30T01:59:39.628Z,51.67
2023-03-30T02:02:10.598Z,51.80
2023-03-30T02:04:42.077Z,51.61
2023-03-30T02:07:16.457Z,52.09
2023-03-30T02:09:46.801Z,52.29
2023-03-30T02:12:17.002Z,52.23
2023-03-30T02:14:45.701Z,51.80
2023-03-30T02:17:18.590Z,52.18
2023-03-30T02:19:47.706Z,52.15
2023-03-30T02:22:17.298Z,52.42
2023-03-30T02:24:47.438Z,52.25
2023-03-30T02:27:18.620Z,52.40
2023-03-30T02:29:47.482Z,52.75
2023-03-30T02:32:19.353Z,53.24
2023-03-30T02:35:05.115Z,53.22
2023-03-30T02:37:46.717Z,53.53
2023-03-30T02:40:26.749Z,53.64
2023-03-30T02:43:19.274Z,53.48
2023-03-30T02:45:54.757Z,54.04
2023-03-30T02:48:39.751Z,54.11
2023-03-30T02:51:25.649Z,54.02
2023-03-30T02:54:02.551Z,54.05
2023-03-30T02:56:38.913Z,54.34
2023-03-30T02:59:14.309Z,54.52
2023-03-30T03:01:48.058Z,54.49
2023-03-30T03:04:17.025Z,54.70
2023-03-30T03:06:45.567Z,54.84
2023-03-30T03:09:15.426Z,55.07
2023-03-30T03:11:43.722Z,55.20
2023-03-30T03:14:13.416Z,55.02
2023-03-30T03:16:42.331Z,55.25
2023-03-30T03:19:11.081Z,55.12
2023-03-30T03:21:39.449Z,55.30
2023-03-30T03:24:08.315Z,55.65
2023-03-30T03:26:38.106Z,55.61
2023-03-30T03:29:06.492Z,55.50
2023-03-30T03:31:37.134Z,55.61
2023-03-30T03:34:05.785Z,55.58
2023-03-30T03:36:34.566Z,55.58
2023-03-30T03:39:02.920Z,55.55
2023-03-30T03:41:31.231Z,55.43
2023-03-30T03:43:59.599Z,55.39
2023-03-30T03:46:28.119Z,55.38
2023-03-30T03:48:57.867Z,55.45
2023-03-30T03:51:26.244Z,55.63
2023-03-30T03:53:54.497Z,55.49
2023-03-30T03:56:22.818Z,55.33
2023-03-30T03:58:51.252Z,55.37
2023-03-30T04:01:19.684Z,55.11
2023-03-30T04:03:48.258Z,54.95
2023-03-30T04:06:18.294Z,54.74
2023-03-30T04:08:46.629Z,54.93
2023-03-30T04:11:15.055Z,54.89
2023-03-30T04:13:43.367Z,54.86
2023-03-30T04:16:11.699Z,55.01
2023-03-30T04:18:41.898Z,55.16
2023-03-30T04:21:13.526Z,55.40
2023-03-30T04:23:46.016Z,55.20
2023-03-30T04:26:16.042Z,55.71
2023-03-30T04:28:44.417Z,55.45
2023-03-30T04:31:13.178Z,55.86
2023-03-30T04:33:51.931Z,56.91
2023-03-30T04:36:21.579Z,57.59
2023-03-30T04:38:58.997Z,58.25
2023-03-30T04:41:33.770Z,58.90
2023-03-30T04:44:06.483Z,59.71
2023-03-30T04:46:34.952Z,60.08
2023-03-30T04:49:03.408Z,61.04
2023-03-30T04:51:31.751Z,61.82
2023-03-30T04:54:02.487Z,62.65
2023-03-30T04:56:30.822Z,63.32
2023-03-30T04:58:59.159Z,63.33
2023-03-30T05:01:27.679Z,63.99
2023-03-30T05:03:56.077Z,64.68
2023-03-30T05:06:24.511Z,64.93
2023-03-30T05:08:53.070Z,65.18
2023-03-30T05:11:22.744Z,65.73
2023-03-30T05:13:52.692Z,65.72
2023-03-30T05:16:22.081Z,65.82
2023-03-30T05:18:51.831Z,65.75
2023-03-30T05:21:20.723Z,65.94
2023-03-30T05:23:49.425Z,66.17
2023-03-30T05:26:17.766Z,66.29
2023-03-30T05:28:48.039Z,66.16
2023-03-30T05:31:17.393Z,66.11
2023-03-30T05:33:45.963Z,66.02
2023-03-30T05:36:14.647Z,65.92
2023-03-30T05:38:42.973Z,65.96
2023-03-30T05:41:11.599Z,65.83
2023-03-30T05:43:39.932Z,65.86
2023-03-30T05:46:10.233Z,65.84
2023-03-30T05:48:38.671Z,65.71
2023-03-30T05:51:07.607Z,65.46
2023-03-30T05:53:36.676Z,65.52
2023-03-30T05:56:05.263Z,65.46
2023-03-30T05:58:33.564Z,65.69
2023-03-30T06:01:02.111Z,65.80
2023-03-30T06:03:32.177Z,65.48
2023-03-30T06:06:00.616Z,65.46
2023-03-30T06:08:29.945Z,65.38
2023-03-30T06:10:58.916Z,65.39
2023-03-30T06:13:27.972Z,65.52
2023-03-30T06:15:57.251Z,65.09
2023-03-30T06:18:25.942Z,65.05
2023-03-30T06:20:55.751Z,65.08
2023-03-30T06:23:24.275Z,64.84
2023-03-30T06:25:54.697Z,65.06
2023-03-30T06:28:23.870Z,65.21
2023-03-30T06:30:52.366Z,65.09
2023-03-30T06:33:20.965Z,64.92
2023-03-30T06:35:50.565Z,65.11
2023-03-30T06:38:21.866Z,65.13
2023-03-30T06:40:51.384Z,65.07
2023-03-30T06:43:22.332Z,65.23
2023-03-30T06:45:54.948Z,65.22
2023-03-30T06:48:25.166Z,65.02
2023-03-30T06:50:54.417Z,65.40
2023-03-30T06:53:25.867Z,65.21
2023-03-30T06:55:57.722Z,65.49
2023-03-30T06:58:27.632Z,65.32
2023-03-30T07:00:56.928Z,65.14
2023-03-30T07:03:26.728Z,64.96
2023-03-30T07:05:55.817Z,64.28
2023-03-30T07:08:25.567Z,64.18
2023-03-30T07:10:53.975Z,64.52
2023-03-30T07:13:22.553Z,64.67
2023-03-30T07:15:52.581Z,64.66
2023-03-30T07:18:21.201Z,65.21
2023-03-30T07:20:49.835Z,65.02
2023-03-30T07:23:18.800Z,65.41
2023-03-30T07:25:48.815Z,65.41
2023-03-30T07:28:17.212Z,65.09
2023-03-30T07:30:45.836Z,65.08
2023-03-30T07:33:14.956Z,65.62
2023-03-30T07:35:47.021Z,65.45
2023-03-30T07:38:15.669Z,65.77
2023-03-30T07:40:44.079Z,66.23
2023-03-30T07:43:13.833Z,66.78
2023-03-30T07:45:42.172Z,66.78
2023-03-30T07:48:10.722Z,66.90
2023-03-30T07:50:39.156Z,67.11
2023-03-30T07:53:07.867Z,66.96
2023-03-30T07:55:36.119Z,67.24
2023-03-30T07:58:04.597Z,67.50
2023-03-30T08:00:34.330Z,67.66
2023-03-30T08:03:03.348Z,67.83
2023-03-30T08:05:31.716Z,67.78
2023-03-30T08:07:59.990Z,67.86
2023-03-30T08:10:28.405Z,67.89
2023-03-30T08:12:56.827Z,67.88
2023-03-30T08:15:25.174Z,68.04
2023-03-30T08:17:55.034Z,68.15
2023-03-30T08:20:23.500Z,68.35
2023-03-30T08:22:51.789Z,67.70
2023-03-30T08:25:20.149Z,68.02
2023-03-30T08:27:48.454Z,68.66
2023-03-30T08:30:17.518Z,68.89
2023-03-30T08:32:45.983Z,69.20
2023-03-30T08:35:17.192Z,69.12
2023-03-30T08:37:45.510Z,69.06
2023-03-30T08:40:15.889Z,69.01
2023-03-30T08:43:01.773Z,68.80
2023-03-30T08:45:38.133Z,68.92
2023-03-30T08:48:12.626Z,69.21
2023-03-30T08:50:48.279Z,68.68
2023-03-30T08:53:16.816Z,68.99
2023-03-30T08:55:48.728Z,69.25
2023-03-30T08:58:25.751Z,69.40
2023-03-30T09:01:02.418Z,69.27
2023-03-30T09:03:38.785Z,68.64
2023-03-30T09:06:14.547Z,68.65
2023-03-30T09:08:43.384Z,68.78
2023-03-30T09:11:15.207Z,68.81
2023-03-30T09:13:46.506Z,69.35
2023-03-30T09:16:20.619Z,69.02
2023-03-30T09:18:55.141Z,68.42
2023-03-30T09:21:29.913Z,69.01
2023-03-30T09:24:00.048Z,67.86
2023-03-30T09:26:36.088Z,68.43
2023-03-30T09:29:13.500Z,68.87
2023-03-30T09:31:46.370Z,68.50
2023-03-30T09:34:26.433Z,68.55
2023-03-30T09:36:58.872Z,68.32
2023-03-30T09:39:29.983Z,68.61
2023-03-30T09:42:12.933Z,68.58
2023-03-30T09:44:47.840Z,68.04
2023-03-30T09:47:25.791Z,67.68
2023-03-30T09:49:59.324Z,67.13
2023-03-30T09:52:32.225Z,66.89
2023-03-30T09:55:18.246Z,67.35
2023-03-30T09:57:46.580Z,66.34
2023-03-30T10:00:27.630Z,66.94
2023-03-30T10:03:00.576Z,66.24
2023-03-30T10:05:29.261Z,65.53
2023-03-30T10:08:01.401Z,65.35
2023-03-30T10:10:34.234Z,65.54
2023-03-30T10:13:09.518Z,65.66
2023-03-30T10:15:40.485Z,65.78
2023-03-30T10:18:25.361Z,64.84
2023-03-30T10:21:06.003Z,65.51
2023-03-30T10:23:40.221Z,64.94
2023-03-30T10:26:15.663Z,65.40
2023-03-30T10:28:54.243Z,65.71
2023-03-30T10:31:26.330Z,65.13
2023-03-30T10:33:59.135Z,64.94
2023-03-30T10:36:32.517Z,64.94
2023-03-30T10:39:13.822Z,65.21
2023-03-30T10:41:43.610Z,64.01
2023-03-30T10:44:21.652Z,63.32
2023-03-30T10:46:54.025Z,64.22
2023-03-30T10:49:36.071Z,64.31
2023-03-30T10:52:13.851Z,64.41
2023-03-30T10:54:51.842Z,63.70
2023-03-30T10:57:22.877Z,63.89
2023-03-30T11:00:15.761Z,63.42
2023-03-30T11:02:55.603Z,62.00
2023-03-30T11:05:32.741Z,61.83
2023-03-30T11:08:04.223Z,61.76
2023-03-30T11:10:38.210Z,61.70
2023-03-30T11:13:08.770Z,62.10
2023-03-30T11:15:43.749Z,61.54
2023-03-30T11:18:18.630Z,61.34
2023-03-30T11:20:52.764Z,60.60
2023-03-30T11:23:29.018Z,60.62
2023-03-30T11:26:04.245Z,59.59
2023-03-30T11:28:53.026Z,59.43
2023-03-30T11:31:33.925Z,59.47
2023-03-30T11:34:10.255Z,59.50
2023-03-30T11:36:46.336Z,59.21
2023-03-30T11:39:30.989Z,58.80
2023-03-30T11:42:09.743Z,58.19
2023-03-30T11:44:38.143Z,56.27
2023-03-30T11:47:24.442Z,56.64
2023-03-30T11:50:04.378Z,56.60
2023-03-30T11:52:39.858Z,56.10
2023-03-30T11:55:28.558Z,56.24
2023-03-30T11:58:08.282Z,56.00
2023-03-30T12:00:49.945Z,56.36
2023-03-30T12:03:31.539Z,56.15
2023-03-30T12:06:08.017Z,55.62
2023-03-30T12:08:56.567Z,55.23
2023-03-30T12:11:34.665Z,55.58
2023-03-30T12:14:04.792Z,55.85
2023-03-30T12:16:44.864Z,55.25
2023-03-30T12:19:18.891Z,55.69
2023-03-30T12:21:55.297Z,56.30
2023-03-30T12:24:31.041Z,56.71
2023-03-30T12:27:06.066Z,57.49
2023-03-30T12:32:28.367Z,58.05
2023-03-30T12:34:58.376Z,58.12
2023-03-30T12:37:30.057Z,58.10
2023-03-30T12:40:06.976Z,58.38
2023-03-30T12:42:39.806Z,57.94
2023-03-30T12:45:31.887Z,57.76
2023-03-30T12:48:32.571Z,57.65
2023-03-30T12:51:12.701Z,57.32
2023-03-30T12:54:15.979Z,57.26
2023-03-30T12:56:52.510Z,56.26
2023-03-30T13:00:15.749Z,56.20
2023-03-30T13:03:15.443Z,56.19
2023-03-30T13:05:45.390Z,55.45
2023-03-30T13:08:23.118Z,54.08
2023-03-30T13:10:51.407Z,54.28
2023-03-30T13:13:25.132Z,54.35
2023-03-30T13:15:54.937Z,54.54
2023-03-30T13:18:55.526Z,54.55
2023-03-30T13:21:26.291Z,54.93
2023-03-30T13:24:04.385Z,54.86
2023-03-30T13:26:43.768Z,54.88
2023-03-30T13:29:15.427Z,55.28
2023-03-30T13:32:05.213Z,54.76
2023-03-30T13:34:55.129Z,53.98
2023-03-30T13:37:48.758Z,54.09
2023-03-30T13:40:35.095Z,53.27
2023-03-30T13:43:14.354Z,53.62
2023-03-30T13:45:51.406Z,52.80
2023-03-30T13:48:39.297Z,53.43
2023-03-30T13:51:16.322Z,55.22
2023-03-30T13:53:51.796Z,55.97
2023-03-30T13:56:21.335Z,57.71
2023-03-30T13:58:56.650Z,58.46
2023-03-30T14:01:26.778Z,59.31
2023-03-30T14:03:56.922Z,59.59
2023-03-30T14:06:28.213Z,60.15
2023-03-30T14:09:10.391Z,60.94
2023-03-30T14:11:41.402Z,61.25
2023-03-30T14:14:16.296Z,61.47
2023-03-30T14:16:44.798Z,61.72
2023-03-30T14:19:21.919Z,61.79
2023-03-30T14:21:55.161Z,61.87
2023-03-30T14:24:29.762Z,61.78
2023-03-30T14:27:04.601Z,62.33
2023-03-30T14:29:33.080Z,62.21
2023-03-30T14:32:09.254Z,61.97
2023-03-30T14:34:38.325Z,62.19
2023-03-30T14:37:09.543Z,62.19
2023-03-30T14:39:42.648Z,60.40
2023-03-30T14:42:16.417Z,61.10
2023-03-30T14:44:46.916Z,61.59
2023-03-30T14:47:16.247Z,62.02
2023-03-30T14:49:47.636Z,61.54
2023-03-30T14:52:20.808Z,61.94
2023-03-30T14:55:05.271Z,61.97
2023-03-30T14:57:39.094Z,62.36
2023-03-30T15:00:18.699Z,62.25
2023-03-30T15:02:50.167Z,61.53
2023-03-30T15:05:19.490Z,61.71
2023-03-30T15:07:51.252Z,62.01
2023-03-30T15:10:25.097Z,62.04
2023-03-30T15:12:56.686Z,62.27
2023-03-30T15:15:28.318Z,62.15
2023-03-30T15:17:57.767Z,62.35
2023-03-30T15:20:28.496Z,62.33
2023-03-30T15:22:58.513Z,61.97
2023-03-30T15:25:32.782Z,61.81
2023-03-30T15:28:06.778Z,62.29
2023-03-30T15:30:39.384Z,62.44
2023-03-30T15:33:08.304Z,62.55
2023-03-30T15:35:38.640Z,62.55
2023-03-30T15:38:17.355Z,62.24
2023-03-30T15:40:47.992Z,62.22
2023-03-30T15:43:19.492Z,61.89
2023-03-30T15:45:51.704Z,62.16
2023-03-30T15:48:23.148Z,61.79
2023-03-30T15:50:56.864Z,62.11
2023-03-30T15:53:37.246Z,62.28
2023-03-30T15:56:09.187Z,62.43
2023-03-30T15:58:37.871Z,62.07
2023-03-30T16:01:06.996Z,62.04
2023-03-30T16:03:40.611Z,62.00
2023-03-30T16:06:14.511Z,61.92
2023-03-30T16:08:45.357Z,62.03
2023-03-30T16:11:16.439Z,61.89
2023-03-30T16:13:46.393Z,61.23
2023-03-30T16:16:15.833Z,61.20
2023-03-30T16:18:44.464Z,61.20
2023-03-30T16:21:13.054Z,61.20
2023-03-30T16:23:41.600Z,60.98
2023-03-30T16:26:12.537Z,61.21
2023-03-30T16:28:42.807Z,61.44
2023-03-30T16:31:17.544Z,61.38
2023-03-30T16:33:45.926Z,61.66
2023-03-30T16:36:16.197Z,61.68
2023-03-30T16:38:44.645Z,61.76
2023-03-30T16:41:19.492Z,61.77
2023-03-30T16:43:47.971Z,61.93
2023-03-30T16:46:18.039Z,61.83
2023-03-30T16:48:47.274Z,61.85
2023-03-30T16:51:17.217Z,61.84
2023-03-30T16:53:45.560Z,61.90
2023-03-30T16:56:18.757Z,61.90
2023-03-30T16:58:47.671Z,61.96
2023-03-30T17:01:18.856Z,62.06
2023-03-30T17:03:47.523Z,61.94
2023-03-30T17:06:17.215Z,61.87
2023-03-30T17:08:46.066Z,62.10
2023-03-30T17:11:15.513Z,61.67
2023-03-30T17:13:47.067Z,62.14
2023-03-30T17:16:16.976Z,62.67
2023-03-30T17:18:45.633Z,62.84
2023-03-30T17:21:16.742Z,62.58
2023-03-30T17:23:47.920Z,62.66
2023-03-30T17:26:17.336Z,62.77
2023-03-30T17:28:47.293Z,63.14
2023-03-30T17:31:18.473Z,63.16
2023-03-30T17:33:46.902Z,63.15
2023-03-30T17:36:18.467Z,63.12
2023-03-30T17:38:47.276Z,62.95
2023-03-30T17:41:17.160Z,62.94
2023-03-30T17:43:48.195Z,63.22
2023-03-30T17:46:18.317Z,63.46
2023-03-30T17:48:47.139Z,62.71
2023-03-30T17:51:15.692Z,63.08
2023-03-30T17:53:44.095Z,63.07
2023-03-30T17:56:14.498Z,63.07
2023-03-30T17:58:43.113Z,62.50
2023-03-30T18:01:14.089Z,62.34
2023-03-30T18:03:42.885Z,62.87
2023-03-30T18:06:13.672Z,63.11
2023-03-30T18:08:43.200Z,63.36
2023-03-30T18:11:12.188Z,63.36
2023-03-30T18:13:40.787Z,63.16
2023-03-30T18:16:14.150Z,63.17
2023-03-30T18:18:42.723Z,63.68
2023-03-30T18:21:12.101Z,63.45
2023-03-30T18:23:40.465Z,63.33
2023-03-30T18:26:12.232Z,63.46
2023-03-30T18:28:44.325Z,63.49
2023-03-30T18:31:14.528Z,63.48
2023-03-30T18:33:42.850Z,63.67
2023-03-30T18:36:13.467Z,63.46
2023-03-30T18:38:42.763Z,63.68
2023-03-30T18:41:12.938Z,63.38
2023-03-30T18:43:41.403Z,63.70
2023-03-30T18:46:13.074Z,63.67
2023-03-30T18:48:43.292Z,63.48
2023-03-30T18:51:12.733Z,63.55
2023-03-30T18:53:41.118Z,63.66
2023-03-30T18:56:13.833Z,63.39
2023-03-30T18:58:42.986Z,63.79
2023-03-30T19:01:13.569Z,63.79
2023-03-30T19:03:44.963Z,63.77
2023-03-30T19:06:16.625Z,63.09
2023-03-30T19:08:45.197Z,63.63
2023-03-30T19:11:17.348Z,63.61
2023-03-30T19:13:47.492Z,63.55
2023-03-30T19:16:18.716Z,63.65
2023-03-30T19:18:49.808Z,63.97
2023-03-30T19:21:19.496Z,64.09
2023-03-30T19:23:48.182Z,64.09
2023-03-30T19:26:16.641Z,63.89
2023-03-30T19:28:44.938Z,63.77
2023-03-30T19:31:16.518Z,64.02
2023-03-30T19:33:46.807Z,63.58
2023-03-30T19:36:17.991Z,64.35
2023-03-30T19:38:46.720Z,64.64
2023-03-30T19:41:15.157Z,64.33
2023-03-30T19:43:43.729Z,64.65
2023-03-30T19:46:13.209Z,64.96
2023-03-30T19:48:42.620Z,64.75
2023-03-30T19:51:12.690Z,64.76
2023-03-30T19:53:43.507Z,64.73
2023-03-30T19:56:13.293Z,64.79
2023-03-30T19:58:43.134Z,64.50
2023-03-30T20:01:11.908Z,65.01
2023-03-30T20:03:41.032Z,64.92
2023-03-30T20:06:12.327Z,64.64
2023-03-30T20:08:43.760Z,63.53
2023-03-30T20:11:14.374Z,64.42
2023-03-30T20:13:46.397Z,64.86
2023-03-30T20:16:21.412Z,64.99
2023-03-30T20:18:51.531Z,64.52
2023-03-30T20:21:22.292Z,64.55
2023-03-30T20:23:53.463Z,64.41
2023-03-30T20:26:23.698Z,64.40
2023-03-30T20:28:53.457Z,65.05
2023-03-30T20:31:23.312Z,65.03
2023-03-30T20:33:54.173Z,64.75
2023-03-30T20:36:25.944Z,64.63
2023-03-30T20:39:01.508Z,64.96
2023-03-30T20:41:39.977Z,64.86
2023-03-30T20:44:13.199Z,64.80
2023-03-30T20:46:44.078Z,64.96
2023-03-30T20:49:14.487Z,64.63
2023-03-30T20:51:45.546Z,64.64
2023-03-30T20:54:16.644Z,64.68
2023-03-30T20:56:46.705Z,64.36
2023-03-30T20:59:16.432Z,64.30
2023-03-30T21:01:47.666Z,64.33
2023-03-30T21:04:17.633Z,63.98
2023-03-30T21:06:47.906Z,64.22
2023-03-30T21:09:21.030Z,64.23
2023-03-30T21:11:51.243Z,64.23
2023-03-30T21:14:20.105Z,64.03
2023-03-30T21:16:48.582Z,64.30
2023-03-30T21:19:17.188Z,64.26
2023-03-30T21:21:48.273Z,64.50
2023-03-30T21:24:18.733Z,64.44
2023-03-30T21:26:47.044Z,64.41
2023-03-30T21:29:15.594Z,64.67
2023-03-30T21:31:44.053Z,64.24
2023-03-30T21:34:13.664Z,64.31
2023-03-30T21:36:42.743Z,63.68
2023-03-30T21:39:11.133Z,64.22
2023-03-30T21:41:40.955Z,64.10
2023-03-30T21:44:09.294Z,64.58
2023-03-30T21:46:37.700Z,64.76
2023-03-30T21:49:06.123Z,64.68
2023-03-30T21:51:34.505Z,64.77
2023-03-30T21:54:03.066Z,64.99
2023-03-30T21:56:32.496Z,64.70
2023-03-30T21:59:02.530Z,65.08
2023-03-30T22:01:30.912Z,65.01
2023-03-30T22:03:59.583Z,64.78
2023-03-30T22:06:28.197Z,64.64
2023-03-30T22:08:56.527Z,65.01
2023-03-30T22:11:26.699Z,64.96
2023-03-30T22:13:55.472Z,65.19
2023-03-30T22:16:28.460Z,65.15
2023-03-30T22:18:57.472Z,65.01
2023-03-30T22:21:29.322Z,65.34
2023-03-30T22:23:57.697Z,65.48
2023-03-30T22:26:27.442Z,65.50
2023-03-30T22:28:55.960Z,65.22
2023-03-30T22:31:26.710Z,65.50
2023-03-30T22:33:55.850Z,65.54
2023-03-30T22:36:26.481Z,65.27
2023-03-30T22:38:56.871Z,65.23
2023-03-30T22:41:26.808Z,65.43
2023-03-30T22:43:56.821Z,65.01
2023-03-30T22:46:28.046Z,65.44
2023-03-30T22:48:56.681Z,65.38
2023-03-30T22:51:26.974Z,65.62
2023-03-30T22:53:58.098Z,65.61
2023-03-30T22:56:27.619Z,65.71
2023-03-30T22:58:56.151Z,65.76
2023-03-30T23:01:24.619Z,65.93
2023-03-30T23:03:54.644Z,65.84
2023-03-30T23:06:23.009Z,66.19
2023-03-30T23:08:52.802Z,65.88
2023-03-30T23:11:21.778Z,66.13
2023-03-30T23:13:50.182Z,66.21
2023-03-30T23:16:19.354Z,66.04
2023-03-30T23:18:47.658Z,66.06
2023-03-30T23:21:17.438Z,66.11
2023-03-30T23:23:45.778Z,65.86
2023-03-30T23:26:14.077Z,66.09
2023-03-30T23:28:43.681Z,66.20
2023-03-30T23:31:13.482Z,65.90
2023-03-30T23:33:42.270Z,66.04
2023-03-30T23:36:13.988Z,65.96
2023-03-30T23:38:43.935Z,66.08
2023-03-30T23:41:14.493Z,65.96
2023-03-30T23:43:43.200Z,66.04
2023-03-30T23:46:11.674Z,65.89
2023-03-30T23:48:40.534Z,65.92
2023-03-30T23:51:09.556Z,65.82
2023-03-30T23:53:40.520Z,65.76
2023-03-30T23:56:13.895Z,65.92
2023-03-30T23:58:42.569Z,66.08
